sensor_id;sensor_type;location;lat;lon;timestamp;P1;durP1;ratioP1;P2;durP2;ratioP2
9264;SDS011;4669;49.594;10.958;2024-01-16T05:29:16;11.73;;;7.20;;
9264;SDS011;4669;49.594;10.958;2024-01-16T05:34:19;9.90;;;8.50;;
9264;SDS011;4669;49.594;10.958;2024-01-16T05:39:21;11.90;;;8.60;;
9264;SDS011;4669;49.594;10.958;2024-01-16T05:44:25;12.60;;;7.43;;
9264;SDS011;4669;49.594;10.958;2024-01-16T05:49:27;12.13;;;8.10;;
9264;SDS011;4669;49.594;10.958;2024-01-16T05:54:29;16.98;;;8.25;;
9264;SDS011;4669;49.594;10.958;2024-01-16T05:59:32;13.53;;;8.53;;
9264;SDS011;4669;49.594;10.958;2024-01-16T06:04:34;10.43;;;7.67;;
9264;SDS011;4669;49.594;10.958;2024-01-16T06:09:37;12.40;;;8.27;;
9264;SDS011;4669;49.594;10.958;2024-01-16T06:14:42;12.67;;;7.77;;
9264;SDS011;4669;49.594;10.958;2024-01-16T06:19:44;11.67;;;8.13;;
9264;SDS011;4669;49.594;10.958;2024-01-16T06:24:47;14.83;;;7.80;;
9264;SDS011;4669;49.594;10.958;2024-01-16T06:29:50;11.88;;;8.20;;
9264;SDS011;4669;49.594;10.958;2024-01-16T06:34:52;13.67;;;8.07;;
9264;SDS011;4669;49.594;10.958;2024-01-16T06:39:54;11.33;;;7.67;;
9264;SDS011;4669;49.594;10.958;2024-01-16T06:44:58;12.07;;;7.97;;
9264;SDS011;4669;49.594;10.958;2024-01-16T06:50:00;13.50;;;8.40;;
9264;SDS011;4669;49.594;10.958;2024-01-16T06:55:03;10.83;;;7.87;;
9264;SDS011;4669;49.594;10.958;2024-01-16T07:00:08;13.90;;;8.27;;
9264;SDS011;4669;49.594;10.958;2024-01-16T07:05:11;12.17;;;8.43;;
9264;SDS011;4669;49.594;10.958;2024-01-16T07:10:13;13.47;;;8.57;;
9264;SDS011;4669;49.594;10.958;2024-01-16T07:15:19;14.83;;;8.87;;
9264;SDS011;4669;49.594;10.958;2024-01-16T07:20:21;9.90;;;7.37;;
9264;SDS011;4669;49.594;10.958;2024-01-16T07:25:23;16.00;;;8.50;;
9264;SDS011;4669;49.594;10.958;2024-01-16T07:30:27;14.93;;;8.90;;
9264;SDS011;4669;49.594;10.958;2024-01-16T07:35:29;13.93;;;8.68;;
9264;SDS011;4669;49.594;10.958;2024-01-16T07:40:31;15.57;;;7.73;;
9264;SDS011;4669;49.594;10.958;2024-01-16T07:45:34;12.47;;;8.40;;
9264;SDS011;4669;49.594;10.958;2024-01-16T07:50:36;11.10;;;7.83;;
9264;SDS011;4669;49.594;10.958;2024-01-16T07:55:38;12.27;;;7.73;;
9264;SDS011;4669;49.594;10.958;2024-01-16T08:00:41;13.87;;;8.87;;
9264;SDS011;4669;49.594;10.958;2024-01-16T08:05:43;11.63;;;7.93;;
9264;SDS011;4669;49.594;10.958;2024-01-16T08:10:45;16.07;;;8.77;;
9264;SDS011;4669;49.594;10.958;2024-01-16T08:15:49;10.67;;;8.23;;
9264;SDS011;4669;49.594;10.958;2024-01-16T08:20:51;11.93;;;8.50;;
9264;SDS011;4669;49.594;10.958;2024-01-16T08:25:52;11.70;;;8.43;;
9264;SDS011;4669;49.594;10.958;2024-01-16T08:30:56;15.00;;;8.10;;
9264;SDS011;4669;49.594;10.958;2024-01-16T08:35:59;14.48;;;7.50;;
9264;SDS011;4669;49.594;10.958;2024-01-16T08:41:00;16.97;;;8.63;;
9264;SDS011;4669;49.594;10.958;2024-01-16T08:46:04;10.60;;;7.55;;
9264;SDS011;4669;49.594;10.958;2024-01-16T08:51:07;11.43;;;7.77;;
9264;SDS011;4669;49.594;10.958;2024-01-16T08:56:12;15.40;;;8.20;;
9264;SDS011;4669;49.594;10.958;2024-01-16T09:01:15;11.48;;;8.32;;
9264;SDS011;4669;49.594;10.958;2024-01-16T09:06:17;12.53;;;8.40;;
9264;SDS011;4669;49.594;10.958;2024-01-16T09:11:19;16.85;;;9.35;;
9264;SDS011;4669;49.594;10.958;2024-01-16T09:16:23;13.23;;;8.07;;
9264;SDS011;4669;49.594;10.958;2024-01-16T09:21:25;16.05;;;7.68;;
9264;SDS011;4669;49.594;10.958;2024-01-16T09:26:27;11.82;;;7.40;;
9264;SDS011;4669;49.594;10.958;2024-01-16T09:31:30;11.15;;;6.72;;
9264;SDS011;4669;49.594;10.958;2024-01-16T09:36:32;11.77;;;7.75;;
9264;SDS011;4669;49.594;10.958;2024-01-16T09:41:35;14.02;;;7.03;;
9264;SDS011;4669;49.594;10.958;2024-01-16T09:46:39;18.50;;;8.30;;
9264;SDS011;4669;49.594;10.958;2024-01-16T09:51:46;14.25;;;7.43;;
9264;SDS011;4669;49.594;10.958;2024-01-16T09:56:49;11.10;;;6.47;;
9264;SDS011;4669;49.594;10.958;2024-01-16T10:01:56;11.40;;;6.18;;
9264;SDS011;4669;49.594;10.958;2024-01-16T10:06:58;12.38;;;7.25;;
9264;SDS011;4669;49.594;10.958;2024-01-16T10:12:03;13.25;;;6.90;;
9264;SDS011;4669;49.594;10.958;2024-01-16T10:17:07;11.32;;;7.50;;
9264;SDS011;4669;49.594;10.958;2024-01-16T10:22:18;17.35;;;6.88;;
9264;SDS011;4669;49.594;10.958;2024-01-16T10:27:21;11.93;;;6.80;;
9264;SDS011;4669;49.594;10.958;2024-01-16T10:32:33;11.20;;;6.10;;
9264;SDS011;4669;49.594;10.958;2024-01-16T10:37:41;12.20;;;6.03;;
9264;SDS011;4669;49.594;10.958;2024-01-16T10:42:44;12.38;;;5.97;;
9264;SDS011;4669;49.594;10.958;2024-01-16T10:47:50;13.38;;;5.50;;
9264;SDS011;4669;49.594;10.958;2024-01-16T10:53:03;9.63;;;6.00;;
9264;SDS011;4669;49.594;10.958;2024-01-16T10:58:06;8.32;;;5.68;;
9264;SDS011;4669;49.594;10.958;2024-01-16T11:03:11;9.18;;;6.20;;
9264;SDS011;4669;49.594;10.958;2024-01-16T11:08:20;11.57;;;6.82;;
9264;SDS011;4669;49.594;10.958;2024-01-16T11:13:22;8.93;;;5.80;;
9264;SDS011;4669;49.594;10.958;2024-01-16T11:18:26;10.35;;;6.22;;
9264;SDS011;4669;49.594;10.958;2024-01-16T11:23:31;9.77;;;5.57;;
9264;SDS011;4669;49.594;10.958;2024-01-16T11:28:35;10.95;;;5.55;;
9264;SDS011;4669;49.594;10.958;2024-01-16T11:33:44;10.48;;;6.15;;
9264;SDS011;4669;49.594;10.958;2024-01-16T11:38:46;9.48;;;5.90;;
9264;SDS011;4669;49.594;10.958;2024-01-16T11:43:48;11.80;;;5.47;;
9264;SDS011;4669;49.594;10.958;2024-01-16T11:49:01;8.35;;;5.10;;
9264;SDS011;4669;49.594;10.958;2024-01-16T11:54:03;10.85;;;5.85;;
9264;SDS011;4669;49.594;10.958;2024-01-16T12:04:54;8.05;;;5.43;;
9264;SDS011;4669;49.594;10.958;2024-01-16T12:09:58;9.77;;;5.32;;
9264;SDS011;4669;49.594;10.958;2024-01-16T12:15:01;12.07;;;4.50;;
9264;SDS011;4669;49.594;10.958;2024-01-16T12:20:17;8.40;;;4.10;;
9264;SDS011;4669;49.594;10.958;2024-01-16T12:25:20;7.30;;;4.28;;
9264;SDS011;4669;49.594;10.958;2024-01-16T12:30:23;8.52;;;4.03;;
9264;SDS011;4669;49.594;10.958;2024-01-16T12:35:27;8.82;;;4.68;;
9264;SDS011;4669;49.594;10.958;2024-01-16T12:40:29;7.50;;;4.38;;
9264;SDS011;4669;49.594;10.958;2024-01-16T12:45:31;6.00;;;3.00;;
9264;SDS011;4669;49.594;10.958;2024-01-16T12:50:35;7.88;;;3.50;;
9264;SDS011;4669;49.594;10.958;2024-01-16T12:55:38;6.10;;;3.85;;
9264;SDS011;4669;49.594;10.958;2024-01-16T13:00:41;6.88;;;3.17;;
9264;SDS011;4669;49.594;10.958;2024-01-16T13:05:45;5.88;;;3.38;;
9264;SDS011;4669;49.594;10.958;2024-01-16T13:11:01;8.18;;;3.33;;
9264;SDS011;4669;49.594;10.958;2024-01-16T13:16:04;4.55;;;3.35;;
9264;SDS011;4669;49.594;10.958;2024-01-16T13:21:08;9.13;;;3.47;;
9264;SDS011;4669;49.594;10.958;2024-01-16T13:26:10;6.95;;;3.17;;
9264;SDS011;4669;49.594;10.958;2024-01-16T13:31:12;6.22;;;3.42;;
9264;SDS011;4669;49.594;10.958;2024-01-16T13:36:17;5.72;;;3.45;;
9264;SDS011;4669;49.594;10.958;2024-01-16T13:41:20;5.63;;;3.47;;
9264;SDS011;4669;49.594;10.958;2024-01-16T13:46:22;7.93;;;3.58;;
9264;SDS011;4669;49.594;10.958;2024-01-16T13:51:26;8.40;;;3.70;;
9264;SDS011;4669;49.594;10.958;2024-01-16T13:56:28;9.15;;;3.78;;
9264;SDS011;4669;49.594;10.958;2024-01-16T14:01:30;11.95;;;3.90;;
9264;SDS011;4669;49.594;10.958;2024-01-16T14:06:34;6.65;;;3.45;;
9264;SDS011;4669;49.594;10.958;2024-01-16T14:11:36;4.90;;;3.45;;
9264;SDS011;4669;49.594;10.958;2024-01-16T14:16:38;6.17;;;3.93;;
9264;SDS011;4669;49.594;10.958;2024-01-16T14:21:42;8.20;;;4.65;;
9264;SDS011;4669;49.594;10.958;2024-01-16T14:26:44;9.20;;;4.72;;
9264;SDS011;4669;49.594;10.958;2024-01-16T14:31:46;8.15;;;4.22;;
9264;SDS011;4669;49.594;10.958;2024-01-16T14:36:50;6.88;;;4.57;;
9264;SDS011;4669;49.594;10.958;2024-01-16T14:41:53;6.55;;;4.63;;
9264;SDS011;4669;49.594;10.958;2024-01-16T14:46:55;7.28;;;4.00;;
9264;SDS011;4669;49.594;10.958;2024-01-16T14:52:00;7.80;;;4.72;;
9264;SDS011;4669;49.594;10.958;2024-01-16T14:57:02;6.88;;;4.28;;
9264;SDS011;4669;49.594;10.958;2024-01-16T15:02:05;5.78;;;4.50;;
9264;SDS011;4669;49.594;10.958;2024-01-16T15:07:14;9.15;;;5.50;;
9264;SDS011;4669;49.594;10.958;2024-01-16T15:12:16;9.70;;;5.05;;
9264;SDS011;4669;49.594;10.958;2024-01-16T15:17:18;8.35;;;4.68;;
9264;SDS011;4669;49.594;10.958;2024-01-16T15:22:22;9.20;;;5.57;;
9264;SDS011;4669;49.594;10.958;2024-01-16T15:27:24;9.65;;;5.60;;
9264;SDS011;4669;49.594;10.958;2024-01-16T15:32:26;11.52;;;4.97;;
9264;SDS011;4669;49.594;10.958;2024-01-16T15:37:29;9.20;;;5.00;;
9264;SDS011;4669;49.594;10.958;2024-01-16T15:42:32;10.77;;;5.20;;
9264;SDS011;4669;49.594;10.958;2024-01-16T15:47:36;11.23;;;5.00;;
9264;SDS011;4669;49.594;10.958;2024-01-16T15:52:40;10.05;;;5.00;;
9264;SDS011;4669;49.594;10.958;2024-01-16T15:57:42;7.90;;;4.55;;
9264;SDS011;4669;49.594;10.958;2024-01-16T16:02:44;8.10;;;4.10;;
9264;SDS011;4669;49.594;10.958;2024-01-16T16:07:50;8.93;;;5.55;;
9264;SDS011;4669;49.594;10.958;2024-01-16T16:12:52;7.70;;;5.30;;
9264;SDS011;4669;49.594;10.958;2024-01-16T16:17:54;11.97;;;5.87;;
9264;SDS011;4669;49.594;10.958;2024-01-16T16:22:57;12.63;;;6.45;;
9264;SDS011;4669;49.594;10.958;2024-01-16T16:28:00;11.98;;;7.10;;
9264;SDS011;4669;49.594;10.958;2024-01-16T16:33:02;10.90;;;6.15;;
9264;SDS011;4669;49.594;10.958;2024-01-16T16:38:05;20.55;;;9.60;;
9264;SDS011;4669;49.594;10.958;2024-01-16T16:43:09;20.85;;;11.05;;
9264;SDS011;4669;49.594;10.958;2024-01-16T16:48:11;29.17;;;9.95;;
9264;SDS011;4669;49.594;10.958;2024-01-16T16:53:15;11.15;;;6.65;;
9264;SDS011;4669;49.594;10.958;2024-01-16T16:58:17;10.70;;;5.28;;
9264;SDS011;4669;49.594;10.958;2024-01-16T17:03:19;13.88;;;6.75;;
9264;SDS011;4669;49.594;10.958;2024-01-16T17:08:22;13.27;;;6.28;;
9264;SDS011;4669;49.594;10.958;2024-01-16T17:13:24;13.82;;;7.65;;
9264;SDS011;4669;49.594;10.958;2024-01-16T17:18:29;10.27;;;6.00;;
9264;SDS011;4669;49.594;10.958;2024-01-16T17:23:36;11.07;;;5.77;;
9264;SDS011;4669;49.594;10.958;2024-01-16T17:28:38;8.20;;;5.87;;
9264;SDS011;4669;49.594;10.958;2024-01-16T17:33:40;9.50;;;5.83;;
9264;SDS011;4669;49.594;10.958;2024-01-16T17:38:44;7.10;;;6.07;;
9264;SDS011;4669;49.594;10.958;2024-01-16T17:43:46;11.90;;;7.20;;
9264;SDS011;4669;49.594;10.958;2024-01-16T17:48:49;16.77;;;9.98;;
9264;SDS011;4669;49.594;10.958;2024-01-16T17:53:52;16.33;;;10.53;;
9264;SDS011;4669;49.594;10.958;2024-01-16T17:58:55;18.80;;;10.90;;
9264;SDS011;4669;49.594;10.958;2024-01-16T18:03:58;17.70;;;10.93;;
9264;SDS011;4669;49.594;10.958;2024-01-16T18:09:01;15.88;;;10.25;;
9264;SDS011;4669;49.594;10.958;2024-01-16T18:14:09;17.90;;;11.07;;
9264;SDS011;4669;49.594;10.958;2024-01-16T18:19:13;18.17;;;13.07;;
9264;SDS011;4669;49.594;10.958;2024-01-16T18:24:17;39.43;;;21.33;;
9264;SDS011;4669;49.594;10.958;2024-01-16T18:29:19;35.43;;;20.47;;
9264;SDS011;4669;49.594;10.958;2024-01-16T18:34:21;40.63;;;20.77;;
9264;SDS011;4669;49.594;10.958;2024-01-16T18:39:24;38.90;;;21.63;;
9264;SDS011;4669;49.594;10.958;2024-01-16T18:44:26;38.37;;;21.67;;
9264;SDS011;4669;49.594;10.958;2024-01-16T18:49:28;33.10;;;20.00;;
9264;SDS011;4669;49.594;10.958;2024-01-16T18:54:31;31.07;;;19.70;;
9264;SDS011;4669;49.594;10.958;2024-01-16T18:59:34;36.60;;;22.53;;
9264;SDS011;4669;49.594;10.958;2024-01-16T19:04:36;33.93;;;20.13;;
9264;SDS011;4669;49.594;10.958;2024-01-16T19:09:43;38.80;;;22.20;;
9264;SDS011;4669;49.594;10.958;2024-01-16T19:14:45;37.73;;;22.23;;
9264;SDS011;4669;49.594;10.958;2024-01-16T19:19:47;40.60;;;26.50;;
9264;SDS011;4669;49.594;10.958;2024-01-16T19:24:50;47.67;;;27.37;;
9264;SDS011;4669;49.594;10.958;2024-01-16T19:29:52;43.33;;;26.57;;
9264;SDS011;4669;49.594;10.958;2024-01-16T19:34:54;39.77;;;25.27;;
9264;SDS011;4669;49.594;10.958;2024-01-16T19:39:58;36.10;;;23.17;;
9264;SDS011;4669;49.594;10.958;2024-01-16T19:45:00;40.20;;;24.80;;
9264;SDS011;4669;49.594;10.958;2024-01-16T19:50:02;42.47;;;26.37;;
9264;SDS011;4669;49.594;10.958;2024-01-16T19:55:07;41.10;;;26.23;;
9264;SDS011;4669;49.594;10.958;2024-01-16T20:00:10;40.33;;;24.00;;
9264;SDS011;4669;49.594;10.958;2024-01-16T20:05:13;37.53;;;23.60;;
9264;SDS011;4669;49.594;10.958;2024-01-16T20:10:17;35.00;;;21.93;;
9264;SDS011;4669;49.594;10.958;2024-01-16T20:15:20;35.00;;;21.03;;
9264;SDS011;4669;49.594;10.958;2024-01-16T20:20:22;37.23;;;20.83;;
9264;SDS011;4669;49.594;10.958;2024-01-16T20:25:25;32.77;;;21.23;;
9264;SDS011;4669;49.594;10.958;2024-01-16T20:30:29;36.90;;;21.00;;
9264;SDS011;4669;49.594;10.958;2024-01-16T20:35:32;36.47;;;21.30;;
9264;SDS011;4669;49.594;10.958;2024-01-16T20:40:36;38.57;;;22.33;;
9264;SDS011;4669;49.594;10.958;2024-01-16T20:45:39;39.97;;;23.87;;
9264;SDS011;4669;49.594;10.958;2024-01-16T20:50:41;35.03;;;22.33;;
9264;SDS011;4669;49.594;10.958;2024-01-16T20:55:45;36.10;;;23.17;;
9264;SDS011;4669;49.594;10.958;2024-01-16T21:00:47;32.20;;;20.37;;
9264;SDS011;4669;49.594;10.958;2024-01-16T21:05:49;28.80;;;18.50;;
9264;SDS011;4669;49.594;10.958;2024-01-16T21:10:55;24.43;;;16.07;;
9264;SDS011;4669;49.594;10.958;2024-01-16T21:15:58;25.70;;;14.07;;
9264;SDS011;4669;49.594;10.958;2024-01-16T21:21:01;21.47;;;12.67;;
9264;SDS011;4669;49.594;10.958;2024-01-16T21:26:08;20.23;;;11.70;;
9264;SDS011;4669;49.594;10.958;2024-01-16T21:31:10;23.57;;;14.23;;
9264;SDS011;4669;49.594;10.958;2024-01-16T21:36:12;22.63;;;14.70;;
9264;SDS011;4669;49.594;10.958;2024-01-16T21:41:16;32.97;;;17.73;;
9264;SDS011;4669;49.594;10.958;2024-01-16T21:46:18;35.67;;;18.70;;
9264;SDS011;4669;49.594;10.958;2024-01-16T21:51:21;37.63;;;22.00;;
9264;SDS011;4669;49.594;10.958;2024-01-16T21:56:24;46.60;;;24.00;;
9264;SDS011;4669;49.594;10.958;2024-01-16T22:01:26;41.37;;;23.80;;
9264;SDS011;4669;49.594;10.958;2024-01-16T22:06:29;100.90;;;36.63;;
9264;SDS011;4669;49.594;10.958;2024-01-16T22:11:33;54.70;;;26.60;;
9264;SDS011;4669;49.594;10.958;2024-01-16T22:16:35;37.23;;;19.80;;
9264;SDS011;4669;49.594;10.958;2024-01-16T22:21:37;31.60;;;17.23;;
9264;SDS011;4669;49.594;10.958;2024-01-16T22:26:40;37.87;;;18.60;;
9264;SDS011;4669;49.594;10.958;2024-01-16T22:31:43;32.23;;;17.80;;
9264;SDS011;4669;49.594;10.958;2024-01-16T22:36:46;34.17;;;20.10;;
9264;SDS011;4669;49.594;10.958;2024-01-16T22:41:49;45.43;;;24.17;;
9264;SDS011;4669;49.594;10.958;2024-01-16T22:46:51;36.57;;;19.83;;
9264;SDS011;4669;49.594;10.958;2024-01-16T22:51:54;30.40;;;17.77;;
9264;SDS011;4669;49.594;10.958;2024-01-16T22:56:57;26.03;;;16.57;;
